createdAt,value
2023-11-07T00:08:41.588Z,3.67
2023-11-07T00:14:14.872Z,5.07
2023-11-07T00:19:50.109Z,2.50
2023-11-07T00:25:00.533Z,1.63
2023-11-07T00:30:11.480Z,1.60
2023-11-07T00:35:23.188Z,2.90
2023-11-07T00:40:37.442Z,2.40
2023-11-07T00:45:47.697Z,1.40
2023-11-07T00:51:02.071Z,1.70
2023-11-07T00:56:21.292Z,1.70
2023-11-07T01:01:33.898Z,3.10
2023-11-07T01:06:41.215Z,2.43
2023-11-07T01:11:48.682Z,2.13
2023-11-07T01:17:11.179Z,2.17
2023-11-07T01:22:28.096Z,1.33
2023-11-07T01:27:57.260Z,2.07
2023-11-07T01:33:07.033Z,2.17
2023-11-07T01:38:26.645Z,2.17
2023-11-07T01:43:44.894Z,2.40
2023-11-07T01:48:52.171Z,2.00
2023-11-07T01:54:02.629Z,2.03
2023-11-07T01:59:22.451Z,2.23
2023-11-07T02:10:16.112Z,2.23
2023-11-07T02:15:40.723Z,2.30
2023-11-07T02:26:29.356Z,1.93
2023-11-07T02:31:52.175Z,1.43
2023-11-07T02:37:18.126Z,2.63
2023-11-07T02:42:28.137Z,1.90
2023-11-07T02:47:43.569Z,1.97
2023-11-07T02:58:32.127Z,2.07
2023-11-07T03:15:12.254Z,1.80
2023-11-07T03:20:22.719Z,1.53
2023-11-07T03:25:34.160Z,1.37
2023-11-07T03:30:44.532Z,1.33
2023-11-07T03:41:32.887Z,2.87
2023-11-07T03:46:41.505Z,2.80
2023-11-07T03:51:57.330Z,2.17
2023-11-07T03:57:09.616Z,1.50
2023-11-07T04:02:30.524Z,1.17
2023-11-07T04:13:34.449Z,2.10
2023-11-07T04:30:16.554Z,1.60
2023-11-07T04:35:47.508Z,1.30
2023-11-07T04:41:04.493Z,1.60
2023-11-07T04:46:24.756Z,1.27
2023-11-07T04:51:30.193Z,1.00
2023-11-07T04:56:49.411Z,1.60
2023-11-07T05:01:57.793Z,1.00
2023-11-07T05:07:14.146Z,1.53
2023-11-07T05:12:30.329Z,1.27
2023-11-07T05:17:58.498Z,1.27
2023-11-07T05:23:25.007Z,1.37
2023-11-07T05:28:30.462Z,1.03
2023-11-07T05:33:50.886Z,2.30
2023-11-07T05:38:57.279Z,2.30
2023-11-07T05:44:12.909Z,0.90
2023-11-07T05:49:32.951Z,1.23
2023-11-07T05:54:43.974Z,1.23
2023-11-07T05:59:51.528Z,1.10
2023-11-07T06:05:03.464Z,1.37
2023-11-07T06:10:49.162Z,0.80
2023-11-07T06:21:37.220Z,1.07
2023-11-07T06:26:51.301Z,1.17
2023-11-07T06:37:36.264Z,1.00
2023-11-07T06:42:55.641Z,1.20
2023-11-07T06:48:01.884Z,1.20
2023-11-07T06:53:15.944Z,0.53
2023-11-07T06:58:37.862Z,1.00
2023-11-07T07:03:49.892Z,1.03
2023-11-07T07:08:59.810Z,1.13
2023-11-07T07:14:08.459Z,0.60
2023-11-07T07:19:23.303Z,1.30
2023-11-07T07:24:41.450Z,0.60
2023-11-07T07:29:56.321Z,0.80
2023-11-07T07:35:10.073Z,0.90
2023-11-07T07:40:52.975Z,0.60
2023-11-07T07:46:08.751Z,0.50
2023-11-07T07:51:23.865Z,0.60
2023-11-07T07:56:35.710Z,0.70
2023-11-07T08:01:48.227Z,0.70
2023-11-07T08:06:58.996Z,0.70
2023-11-07T08:12:07.683Z,0.70
2023-11-07T08:17:16.484Z,0.53
2023-11-07T08:22:32.528Z,0.70
2023-11-07T08:27:37.008Z,0.80
2023-11-07T08:32:50.004Z,0.90
2023-11-07T08:38:20.518Z,0.80
2023-11-07T08:43:28.268Z,1.27
2023-11-07T08:48:38.217Z,0.80
2023-11-07T08:53:54.323Z,0.80
2023-11-07T08:58:57.235Z,1.03
2023-11-07T09:04:07.589Z,0.87
2023-11-07T09:09:18.557Z,0.70
2023-11-07T09:14:25.359Z,0.60
2023-11-07T09:19:33.320Z,0.40
2023-11-07T09:24:43.078Z,0.97
2023-11-07T09:29:59.079Z,0.70
2023-11-07T09:35:15.093Z,1.63
2023-11-07T09:40:25.757Z,0.60
2023-11-07T09:45:40.588Z,0.80
2023-11-07T09:50:49.091Z,0.80
2023-11-07T09:55:57.788Z,1.23
2023-11-07T10:01:03.003Z,1.20
2023-11-07T10:06:10.242Z,1.37
2023-11-07T10:11:22.229Z,0.87
2023-11-07T10:16:39.551Z,0.50
2023-11-07T10:21:50.054Z,1.00
2023-11-07T10:27:02.936Z,1.00
2023-11-07T10:32:11.187Z,0.60
2023-11-07T10:37:20.699Z,0.80
2023-11-07T10:42:29.775Z,0.40
2023-11-07T10:47:38.610Z,0.67
2023-11-07T10:52:47.100Z,0.70
2023-11-07T10:57:59.056Z,0.50
2023-11-07T11:03:08.638Z,0.53
2023-11-07T11:08:18.379Z,0.50
2023-11-07T11:13:33.164Z,1.03
2023-11-07T11:18:48.319Z,0.77
2023-11-07T11:24:21.884Z,0.70
2023-11-07T11:29:34.864Z,0.60
2023-11-07T11:34:41.104Z,0.50
2023-11-07T11:39:47.804Z,0.73
2023-11-07T11:45:40.257Z,0.50
2023-11-07T11:50:41.642Z,0.80
2023-11-07T11:56:08.020Z,0.70
2023-11-07T12:01:28.589Z,0.70
2023-11-07T12:06:34.167Z,0.73
2023-11-07T12:11:51.599Z,0.83
2023-11-07T12:17:03.132Z,0.90
2023-11-07T12:22:09.342Z,0.40
2023-11-07T12:27:25.087Z,0.60
2023-11-07T12:32:30.827Z,0.50
2023-11-07T12:37:38.542Z,0.47
2023-11-07T12:42:45.588Z,0.70
2023-11-07T12:48:09.314Z,0.60
2023-11-07T12:53:20.743Z,0.90
2023-11-07T12:58:32.031Z,0.97
2023-11-07T13:03:44.595Z,0.60
2023-11-07T13:08:54.746Z,1.20
2023-11-07T13:14:12.585Z,0.77
2023-11-07T13:19:18.812Z,0.83
2023-11-07T13:24:28.323Z,0.70
2023-11-07T13:29:35.143Z,1.07
2023-11-07T13:34:40.813Z,0.80
2023-11-07T13:39:47.929Z,0.60
2023-11-07T13:44:53.411Z,0.80
2023-11-07T13:50:01.318Z,1.03
2023-11-07T13:55:08.230Z,1.40
2023-11-07T14:00:17.154Z,0.90
2023-11-07T14:05:30.815Z,1.40
2023-11-07T14:10:58.820Z,0.93
2023-11-07T14:16:14.160Z,2.07
2023-11-07T14:21:32.478Z,2.37
2023-11-07T14:26:37.628Z,2.23
2023-11-07T14:31:45.863Z,2.30
2023-11-07T14:36:52.169Z,2.13
2023-11-07T14:42:00.640Z,1.93
2023-11-07T14:52:26.685Z,2.00
2023-11-07T14:57:33.191Z,1.60
2023-11-07T15:02:50.865Z,2.43
2023-11-07T15:08:11.638Z,1.57
2023-11-07T15:13:22.152Z,3.10
2023-11-07T15:18:29.256Z,5.10
2023-11-07T15:23:37.553Z,3.70
2023-11-07T15:28:51.324Z,1.77
2023-11-07T15:33:58.602Z,1.93
2023-11-07T15:39:05.982Z,1.83
2023-11-07T15:44:13.411Z,1.67
2023-11-07T15:49:33.143Z,2.00
2023-11-07T15:54:43.567Z,4.13
2023-11-07T16:00:03.447Z,1.40
2023-11-07T16:05:31.244Z,1.67
2023-11-07T16:10:47.812Z,1.90
2023-11-07T16:15:55.545Z,1.33
2023-11-07T16:21:06.134Z,2.00
2023-11-07T16:26:21.172Z,4.70
2023-11-07T16:31:29.858Z,2.00
2023-11-07T16:36:36.658Z,2.57
2023-11-07T16:41:53.758Z,2.53
2023-11-07T16:47:04.004Z,1.60
2023-11-07T16:52:22.426Z,1.63
2023-11-07T17:03:13.156Z,1.53
2023-11-07T17:08:31.499Z,2.20
2023-11-07T17:19:55.294Z,2.67
2023-11-07T17:24:59.986Z,2.10
2023-11-07T17:30:13.964Z,3.50
2023-11-07T17:35:45.174Z,3.07
2023-11-07T17:40:51.042Z,2.00
2023-11-07T17:46:07.771Z,2.97
2023-11-07T18:03:37.610Z,2.67
2023-11-07T18:27:43.072Z,6.67
2023-11-07T18:33:24.007Z,3.97
2023-11-07T18:38:37.183Z,3.60
2023-11-07T18:43:45.362Z,2.83
2023-11-07T18:48:52.239Z,2.23
2023-11-07T18:54:54.007Z,2.50
2023-11-07T19:06:03.426Z,2.77
2023-11-07T19:11:18.459Z,3.33
2023-11-07T19:16:27.767Z,4.80
2023-11-07T19:21:33.253Z,3.40
2023-11-07T19:26:41.618Z,3.73
2023-11-07T19:31:53.952Z,4.27
2023-11-07T19:37:27.488Z,3.80
2023-11-07T19:42:42.380Z,2.70
2023-11-07T19:47:51.268Z,11.80
2023-11-07T19:53:06.203Z,11.63
2023-11-07T19:58:05.196Z,4.80
2023-11-07T20:03:44.924Z,7.37
2023-11-07T20:08:57.374Z,7.30
2023-11-07T20:14:06.774Z,6.00
2023-11-07T20:19:17.908Z,4.47
2023-11-07T20:24:37.986Z,4.03
2023-11-07T20:29:52.852Z,2.67
2023-11-07T20:35:10.960Z,3.00
2023-11-07T20:40:24.670Z,3.33
2023-11-07T20:45:33.616Z,3.30
2023-11-07T20:50:42.868Z,2.30
2023-11-07T20:55:49.058Z,2.83
2023-11-07T21:00:58.041Z,2.93
2023-11-07T21:06:04.342Z,3.23
2023-11-07T21:11:31.298Z,2.77
2023-11-07T21:16:36.686Z,3.17
2023-11-07T21:21:42.107Z,2.70
2023-11-07T21:26:52.356Z,2.83
2023-11-07T21:32:02.913Z,2.73
2023-11-07T21:37:11.677Z,3.00
2023-11-07T21:42:23.059Z,2.97
2023-11-07T21:47:30.841Z,2.83
2023-11-07T21:52:39.582Z,2.10
2023-11-07T21:57:46.612Z,4.47
2023-11-07T22:02:57.127Z,3.40
2023-11-07T22:08:00.390Z,2.73
2023-11-07T22:13:08.365Z,2.80
2023-11-07T22:18:36.658Z,2.93
2023-11-07T22:23:43.986Z,2.00
2023-11-07T22:28:52.659Z,3.03
2023-11-07T22:34:11.816Z,4.30
2023-11-07T22:39:35.575Z,3.80
2023-11-07T22:44:43.211Z,3.10
2023-11-07T22:49:53.088Z,2.33
2023-11-07T22:54:59.673Z,2.63
2023-11-07T23:00:11.710Z,2.73
2023-11-07T23:05:22.099Z,2.40
2023-11-07T23:10:30.902Z,4.30
2023-11-07T23:15:57.928Z,3.17
2023-11-07T23:26:41.588Z,2.80
2023-11-07T23:31:44.659Z,2.67
2023-11-07T23:36:50.542Z,2.73
2023-11-07T23:42:00.045Z,3.10
2023-11-07T23:47:07.574Z,2.60
2023-11-07T23:52:12.952Z,3.30
2023-11-07T23:57:20.028Z,2.83
